»·PEaware :: FFT578 KSLC-KDEN

FFT578 :: KSLC-KDEN

FLIGHT INFORMATION

Flight Status: Arrived
Operator:
Frontier Airlines
More flights by this operator :: More flights under this callsign
Pilot: Patricio R. (14780)
Aircraft: AIRBUS A320
(A320)
More flights by this aircraft type
Origin: KSLC Salt Lake City Intl
United States
Destination: KDEN Denver Intl
United States
More flights between these airports :: More routes between these airports
Route: NSIGN5 CHE KAILE2
File this flight plan on PilotEdge
Remarks:
Altitude:
(Current/Filed)
37,000ft
Speed:
(Current/Filed)
446kts
Departed: 07-May-18 10:26 AM
Arrived: 07-May-18 12:09 PM
Distance/Time
Traveled:
339nm/1:43
Distance/Time
To Go:
Arrived

Flight Plot

Page will automatically refresh every two minutes.

Flight plan parsing failed; only flown route is shown


Map Options




Map Legend


Flown Route
Filed Route
Departure Airport
Arrival Airport
Navaid (VOR, NDB)
Fix

Horizontal Profiles

Position Reports

Time Latitude Longitude Heading Altitude Ground
Speed
07-May-18 09:55 40.785621 -111.978658 240 4236ft 0kts
07-May-18 09:56 40.785621 -111.978658 240 4236ft 0kts
07-May-18 09:57 40.785621 -111.978658 240 4236ft 0kts
07-May-18 09:58 40.785621 -111.978658 240 4236ft 0kts
07-May-18 09:59 40.785621 -111.978658 240 4236ft 0kts
07-May-18 10:00 40.785621 -111.978658 240 4236ft 0kts
07-May-18 10:01 40.785621 -111.978658 240 4236ft 0kts
07-May-18 10:02 40.785621 -111.978658 240 4236ft 0kts
07-May-18 10:03 40.785621 -111.978658 240 4236ft 0kts
07-May-18 10:04 40.785621 -111.978658 240 4236ft 0kts
07-May-18 10:05 40.785621 -111.978658 240 4236ft 0kts
07-May-18 10:06 40.785621 -111.978658 240 4236ft 0kts
07-May-18 10:07 40.785621 -111.978658 240 4236ft 0kts
07-May-18 10:08 40.785621 -111.978658 240 4236ft 0kts
07-May-18 10:09 40.785621 -111.978658 240 4236ft 0kts
07-May-18 10:10 40.785621 -111.978658 240 4236ft 0kts
07-May-18 10:11 40.785621 -111.978658 240 4236ft 0kts
07-May-18 10:12 40.785621 -111.978658 240 4236ft 0kts
07-May-18 10:13 40.785621 -111.978657 240 4236ft 0kts
07-May-18 10:14 40.785621 -111.978657 240 4236ft 0kts
07-May-18 10:15 40.785621 -111.978657 240 4236ft 0kts
07-May-18 10:16 40.785621 -111.978657 240 4236ft 0kts
07-May-18 10:17 40.785870 -111.978163 206 4236ft 2kts
07-May-18 10:18 40.786205 -111.978228 116 4236ft 3kts
07-May-18 10:19 40.786191 -111.977641 82 4236ft 0kts
07-May-18 10:20 40.786191 -111.977641 82 4236ft 0kts
07-May-18 10:21 40.786165 -111.976844 121 4236ft 7kts
07-May-18 10:22 40.782076 -111.976165 174 4236ft 20kts
07-May-18 10:23 40.776617 -111.975051 176 4236ft 18kts
07-May-18 10:24 40.774841 -111.974853 159 4236ft 0kts
07-May-18 10:25 40.774678 -111.973700 56 4236ft 11kts
07-May-18 10:26 40.791900 -111.975142 355 4238ft 167kts
07-May-18 10:27 40.839766 -111.980776 351 6523ft 181kts
07-May-18 10:28 40.900950 -111.989450 352 8134ft 259kts
07-May-18 10:29 40.975219 -111.999681 352 11124ft 278kts
07-May-18 10:30 41.057707 -112.011755 353 13527ft 313kts
07-May-18 10:31 41.124495 -111.955840 43 15890ft 338kts
07-May-18 10:32 41.138466 -111.837145 99 18102ft 359kts
07-May-18 10:33 41.081559 -111.739391 153 20229ft 355kts
07-May-18 10:34 40.996518 -111.672675 153 22375ft 360kts
07-May-18 10:35 40.922864 -111.586187 106 24062ft 389kts
07-May-18 10:36 40.911676 -111.436173 96 24743ft 429kts
07-May-18 10:37 40.895434 -111.281457 100 25481ft 453kts
07-May-18 10:38 40.876414 -111.120751 100 26620ft 463kts
07-May-18 10:39 40.875696 -111.114733 100 26664ft 463kts
07-May-18 10:57 40.785621 -111.978658 240 4236ft 0kts
07-May-18 10:58 40.785621 -111.978658 240 4236ft 0kts
07-May-18 11:00 40.785621 -111.978658 240 4236ft 0kts
07-May-18 11:01 40.785621 -111.978658 240 4236ft 0kts
07-May-18 11:02 40.785621 -111.978658 240 4236ft 0kts
07-May-18 11:03 40.785621 -111.978657 240 4236ft 0kts
07-May-18 11:03 40.785761 -111.978336 240 4236ft 1kts
07-May-18 11:05 40.786266 -111.977970 176 4236ft 1kts
07-May-18 11:06 40.786282 -111.977971 177 4236ft 0kts
07-May-18 11:06 40.786163 -111.976931 115 4236ft 14kts
07-May-18 11:07 40.780332 -111.975983 174 4236ft 27kts
07-May-18 11:08 40.774675 -111.974747 150 4236ft 1kts
07-May-18 11:09 40.778304 -111.973545 354 4236ft 81kts
07-May-18 11:10 40.821787 -111.978821 352 5730ft 172kts
07-May-18 11:11 40.873284 -111.985953 352 7366ft 230kts
07-May-18 11:12 40.944120 -111.995481 352 9834ft 272kts
07-May-18 11:13 41.022825 -112.006667 351 12321ft 307kts
07-May-18 11:14 41.102147 -111.986986 43 14968ft 332kts
07-May-18 11:15 41.143740 -111.882478 98 17266ft 354kts
07-May-18 11:16 41.110793 -111.762803 151 19387ft 355kts
07-May-18 11:17 41.026304 -111.696011 153 21625ft 358kts
07-May-18 11:19 40.941672 -111.627077 139 23271ft 368kts
07-May-18 11:20 40.915331 -111.491796 96 23884ft 414kts
07-May-18 11:21 40.901774 -111.335168 101 24570ft 445kts
07-May-18 11:22 40.884120 -111.185277 100 25697ft 455kts
07-May-18 11:23 40.864164 -111.018363 100 26792ft 467kts
07-May-18 11:24 40.843433 -110.847316 100 27774ft 478kts
07-May-18 11:25 40.822022 -110.672856 100 28776ft 487kts
07-May-18 11:26 40.799933 -110.495219 100 29732ft 494kts
07-May-18 11:27 40.777417 -110.316506 101 30571ft 502kts
07-May-18 11:28 40.754593 -110.137633 101 31400ft 505kts
07-May-18 11:29 40.736555 -109.954558 96 32412ft 504kts
07-May-18 11:30 40.723521 -109.770869 96 33291ft 504kts
07-May-18 11:31 40.710239 -109.587558 96 34139ft 503kts
07-May-18 11:32 40.696712 -109.404868 96 34981ft 501kts
07-May-18 11:33 40.683513 -109.230282 97 35701ft 499kts
07-May-18 11:34 40.669433 -109.047980 96 36194ft 503kts
07-May-18 11:35 40.655554 -108.871834 96 36614ft 507kts
07-May-18 11:36 40.640774 -108.687853 96 37205ft 505kts
07-May-18 11:37 40.627210 -108.522111 96 37371ft 506kts
07-May-18 11:38 40.612328 -108.343572 97 37381ft 506kts
07-May-18 11:39 40.596797 -108.160970 97 37376ft 505kts
07-May-18 11:40 40.581003 -107.978637 97 37366ft 505kts
07-May-18 11:41 40.564862 -107.795728 97 37364ft 506kts
07-May-18 11:42 40.548367 -107.612185 97 37375ft 506kts
07-May-18 11:43 40.531582 -107.428728 97 37391ft 506kts
07-May-18 11:44 40.517359 -107.252258 94 37406ft 506kts
07-May-18 11:45 40.507641 -107.068667 94 37396ft 506kts
07-May-18 11:46 40.497625 -106.885127 93 37042ft 505kts
07-May-18 11:47 40.487306 -106.701319 92 34800ft 510kts
07-May-18 11:48 40.476756 -106.518470 93 31840ft 494kts
07-May-18 11:49 40.466348 -106.342873 94 28723ft 487kts
07-May-18 11:50 40.456164 -106.174727 94 26720ft 445kts
07-May-18 11:51 40.446218 -106.015268 95 24822ft 434kts
07-May-18 11:52 40.424360 -105.862104 103 22901ft 423kts
07-May-18 11:53 40.400867 -105.713028 103 20992ft 412kts
07-May-18 11:54 40.377894 -105.568635 103 19102ft 401kts
07-May-18 11:55 40.355816 -105.430068 101 18001ft 368kts
07-May-18 11:56 40.338940 -105.306045 102 16755ft 349kts
07-May-18 11:57 40.322650 -105.187895 101 15185ft 343kts
07-May-18 11:58 40.306115 -105.067272 101 13698ft 334kts
07-May-18 11:59 40.290075 -104.949602 101 12248ft 323kts
07-May-18 12:00 40.274693 -104.840471 101 11123ft 275kts
07-May-18 12:01 40.261476 -104.745161 100 11104ft 263kts
07-May-18 12:02 40.217380 -104.684961 178 10722ft 250kts
07-May-18 12:03 40.150422 -104.683912 182 10019ft 230kts
07-May-18 12:04 40.092521 -104.684523 183 9355ft 190kts
07-May-18 12:05 40.041816 -104.685172 183 8238ft 179kts
07-May-18 12:06 39.992900 -104.685724 183 7330ft 175kts
07-May-18 12:07 39.948588 -104.686221 183 6461ft 152kts
07-May-18 12:08 39.907246 -104.686680 183 5693ft 152kts
07-May-18 12:09 39.877215 -104.686311 152 5443ft 34kts
07-May-18 12:10 39.876316 -104.685663 150 5443ft 0kts
07-May-18 12:11 39.874107 -104.684919 181 5443ft 23kts
07-May-18 12:12 39.866361 -104.685009 180 5443ft 26kts
07-May-18 12:13 39.859150 -104.685090 180 5443ft 26kts
07-May-18 12:14 39.853037 -104.684639 99 5443ft 10kts
07-May-18 12:15 39.852813 -104.679754 90 5443ft 13kts
07-May-18 12:16 39.852776 -104.675418 90 5443ft 11kts
07-May-18 12:17 39.853404 -104.674890 359 5443ft 0kts

Navigation Log

Ident Type
Flight plan parsing failed, navigation log unavailable